Time;durP1;ratioP1;P1;durP2;ratioP2;P2;SDS_P1;SDS_P2;PMS_P1;PMS_P2;Temp;Humidity;BMP_temperature;BMP_pressure;BME280_temperature;BME280_humidity;BME280_pressure;Samples;Min_cycle;Max_cycle;Signal;HPM_P1;HPM_P2
2023/06/25 00:00:59;;;;;;;13.30;11.90;;;;;;;20.82;62.73;100895.16;10178162;29;20044;-75
2023/06/25 00:06:04;;;;;;;12.63;11.25;;;;;;;20.55;63.26;100892.72;10188254;29;20838;-75
2023/06/25 00:11:07;;;;;;;14.25;11.50;;;;;;;20.52;63.35;100893.09;10191016;29;20039;-75
2023/06/25 00:16:09;;;;;;;13.07;11.65;;;;;;;20.45;63.55;100886.63;10188155;29;20048;-75
2023/06/25 00:21:14;;;;;;;12.93;11.73;;;;;;;20.47;63.46;100886.47;10185490;29;20032;-75
2023/06/25 00:26:17;;;;;;;12.90;11.60;;;;;;;20.43;63.63;100877.78;10183796;29;20040;-75
2023/06/25 00:31:20;;;;;;;17.13;12.38;;;;;;;20.30;63.84;100880.19;10174977;29;20044;-75
2023/06/25 00:36:24;;;;;;;14.90;11.93;;;;;;;20.18;64.21;100876.13;10185727;29;20056;-75
2023/06/25 00:41:27;;;;;;;15.25;13.02;;;;;;;20.15;64.01;100876.50;10190628;29;20154;-75
2023/06/25 00:46:30;;;;;;;14.00;12.60;;;;;;;20.06;64.14;100871.06;10193192;29;20066;-75
2023/06/25 00:51:37;;;;;;;14.05;12.55;;;;;;;20.01;64.09;100865.28;10194803;29;20048;-75
2023/06/25 00:56:40;;;;;;;14.93;12.20;;;;;;;19.99;64.38;100867.31;10192128;29;20350;-74
2023/06/25 01:01:49;;;;;;;14.27;11.57;;;;;;;19.98;64.05;100862.91;10196522;29;20048;-75
2023/06/25 01:07:00;;;;;;;12.32;10.80;;;;;;;19.99;64.19;100872.75;10188843;29;20050;-75
2023/06/25 01:12:03;;;;;;;16.83;11.93;;;;;;;20.01;63.81;100873.44;10194317;29;20050;-74
2023/06/25 01:17:06;;;;;;;13.52;12.00;;;;;;;19.89;64.40;100872.13;10197700;29;20047;-75
2023/06/25 01:22:11;;;;;;;12.52;11.15;;;;;;;19.90;64.54;100863.75;10204810;29;20043;-74
2023/06/25 01:27:16;;;;;;;12.05;10.80;;;;;;;19.94;64.37;100860.69;10198627;29;20047;-75
2023/06/25 01:32:19;;;;;;;12.07;10.88;;;;;;;19.90;64.06;100860.19;10194491;29;20496;-75
2023/06/25 01:37:22;;;;;;;13.52;11.55;;;;;;;19.82;64.20;100855.59;10186337;29;20413;-75
2023/06/25 01:42:27;;;;;;;13.63;10.48;;;;;;;19.74;64.28;100852.88;10192863;29;20159;-75
2023/06/25 01:47:29;;;;;;;13.70;10.63;;;;;;;19.68;64.05;100843.53;10196087;29;20103;-75
2023/06/25 01:52:33;;;;;;;13.32;10.57;;;;;;;19.64;64.41;100850.38;10197064;29;20051;-75
2023/06/25 01:57:38;;;;;;;14.50;10.50;;;;;;;19.64;64.21;100844.91;10198351;29;20107;-75
2023/06/25 02:02:41;;;;;;;11.60;10.50;;;;;;;19.62;64.30;100843.38;10199098;29;20047;-74
2023/06/25 02:07:44;;;;;;;10.95;9.57;;;;;;;19.53;64.74;100838.91;10191623;29;20123;-75
2023/06/25 02:12:48;;;;;;;10.95;9.70;;;;;;;19.46;64.53;100842.34;10194742;29;20059;-75
2023/06/25 02:17:51;;;;;;;14.35;10.60;;;;;;;19.35;65.03;100834.53;10195861;29;20082;-75
2023/06/25 02:22:54;;;;;;;13.85;10.45;;;;;;;19.32;65.19;100823.13;10200599;29;20571;-74
2023/06/25 02:27:59;;;;;;;11.55;10.30;;;;;;;19.29;65.00;100824.31;10196861;29;20046;-75
2023/06/25 02:33:02;;;;;;;11.82;9.90;;;;;;;19.21;65.33;100818.88;10199471;29;20496;-75
2023/06/25 02:38:05;;;;;;;11.90;10.23;;;;;;;19.19;65.30;100816.31;10201427;29;20070;-75
2023/06/25 02:43:09;;;;;;;14.98;10.73;;;;;;;19.18;65.19;100816.50;10192365;29;20040;-75
2023/06/25 02:48:12;;;;;;;15.07;11.15;;;;;;;19.16;65.07;100822.09;10194431;29;20523;-75
2023/06/25 02:53:19;;;;;;;9.40;8.52;;;;;;;19.08;65.38;100822.09;10190959;29;20039;-75
2023/06/25 02:58:23;;;;;;;13.00;9.95;;;;;;;19.15;65.38;100825.84;10193727;29;20047;-75
2023/06/25 03:03:26;;;;;;;11.13;9.30;;;;;;;19.22;64.82;100820.56;10199431;29;20051;-75
2023/06/25 03:08:29;;;;;;;11.32;9.75;;;;;;;19.19;64.41;100812.75;10195571;29;20047;-75
2023/06/25 03:13:34;;;;;;;12.57;8.70;;;;;;;19.12;64.37;100820.75;10191610;29;20064;-75
2023/06/25 03:18:38;;;;;;;10.80;8.25;;;;;;;19.10;64.97;100820.06;10186436;29;20758;-75
2023/06/25 03:23:41;;;;;;;9.60;8.65;;;;;;;19.07;64.95;100828.56;10188436;29;20063;-74
2023/06/25 03:28:45;;;;;;;11.73;9.10;;;;;;;19.07;64.90;100827.72;10197391;29;20538;-75
2023/06/25 03:33:48;;;;;;;10.20;9.10;;;;;;;19.02;64.95;100826.34;10196724;29;20811;-75
2023/06/25 03:38:51;;;;;;;8.75;7.93;;;;;;;19.07;64.91;100811.41;10192996;29;20445;-75
2023/06/25 03:43:56;;;;;;;10.45;8.85;;;;;;;19.06;65.01;100807.81;10192576;29;20051;-75
2023/06/25 03:48:59;;;;;;;14.63;9.60;;;;;;;19.05;64.60;100799.81;10197775;29;20053;-75
2023/06/25 03:54:03;;;;;;;12.60;10.52;;;;;;;18.98;64.84;100799.66;10201772;29;20485;-75
2023/06/25 03:59:07;;;;;;;12.93;9.75;;;;;;;19.00;64.83;100797.59;10195961;29;20048;-75
2023/06/25 04:04:10;;;;;;;14.02;9.73;;;;;;;19.06;64.92;100794.22;10195458;29;20039;-75
2023/06/25 04:09:13;;;;;;;10.80;9.50;;;;;;;19.10;64.76;100795.56;10195905;29;20075;-74
2023/06/25 04:14:17;;;;;;;10.38;9.18;;;;;;;19.10;64.85;100792.84;10191269;29;20054;-74
2023/06/25 04:19:22;;;;;;;11.23;9.90;;;;;;;19.15;64.63;100795.91;10198392;29;20071;-75
2023/06/25 04:24:27;;;;;;;13.25;10.60;;;;;;;19.21;64.63;100797.94;10187696;29;20051;-75
2023/06/25 04:29:31;;;;;;;15.07;10.23;;;;;;;19.24;64.80;100788.56;10180459;29;20583;-75
2023/06/25 04:34:35;;;;;;;12.05;10.43;;;;;;;19.32;64.98;100791.28;10189285;29;20052;-75
2023/06/25 04:39:39;;;;;;;11.98;9.80;;;;;;;19.38;64.76;100793.31;10193913;29;20043;-75
2023/06/25 04:44:44;;;;;;;11.18;9.68;;;;;;;19.44;64.73;100792.66;10196352;29;20106;-74
2023/06/25 04:49:47;;;;;;;12.15;10.20;;;;;;;19.53;64.69;100788.03;10191206;29;20500;-75
2023/06/25 04:54:50;;;;;;;10.98;9.15;;;;;;;19.68;64.74;100785.47;10205243;29;20041;-75
2023/06/25 04:59:54;;;;;;;13.13;10.20;;;;;;;19.77;64.52;100787.13;10191975;29;20055;-75
2023/06/25 05:04:57;;;;;;;10.90;9.10;;;;;;;19.82;65.27;100782.00;10189689;29;20040;-75
2023/06/25 05:09:59;;;;;;;13.23;9.73;;;;;;;19.89;64.74;100779.44;10187874;29;20040;-75
2023/06/25 05:15:04;;;;;;;11.48;9.88;;;;;;;20.02;64.86;100782.47;10186803;29;20039;-75
2023/06/25 05:20:08;;;;;;;11.98;9.10;;;;;;;20.15;64.58;100795.50;10191259;29;20472;-75
2023/06/25 05:25:11;;;;;;;12.32;9.55;;;;;;;20.21;64.20;100783.03;10194537;29;20043;-75
2023/06/25 05:30:16;;;;;;;9.85;8.27;;;;;;;20.25;63.58;100790.69;10192006;29;20051;-75
2023/06/25 05:35:18;;;;;;;9.60;8.60;;;;;;;20.36;63.60;100792.22;10187901;29;20039;-74
2023/06/25 05:40:21;;;;;;;10.32;8.63;;;;;;;20.41;63.31;100787.06;10185796;29;20072;-75
2023/06/25 05:45:26;;;;;;;9.88;8.88;;;;;;;20.61;62.63;100787.47;10194583;29;20059;-75
2023/06/25 05:50:29;;;;;;;12.27;9.60;;;;;;;20.87;62.77;100788.97;10196645;29;20126;-74
2023/06/25 05:55:31;;;;;;;12.93;8.90;;;;;;;20.93;62.96;100774.63;10201218;29;20044;-75
2023/06/25 06:00:36;;;;;;;16.73;9.30;;;;;;;21.03;62.80;100777.91;10201793;29;20044;-75
2023/06/25 06:05:39;;;;;;;12.45;9.65;;;;;;;21.22;62.62;100776.59;10197559;29;20051;-75
2023/06/25 06:10:41;;;;;;;11.65;10.10;;;;;;;21.12;61.29;100778.75;10196309;29;20067;-74
2023/06/25 06:15:46;;;;;;;11.82;9.38;;;;;;;21.15;61.56;100781.97;10192197;29;20027;-75
2023/06/25 06:20:49;;;;;;;10.02;8.75;;;;;;;21.38;61.23;100773.72;10194487;29;20098;-75
2023/06/25 06:25:52;;;;;;;14.30;9.20;;;;;;;21.54;60.81;100777.31;10196519;29;20118;-75
2023/06/25 06:30:56;;;;;;;10.15;9.15;;;;;;;21.63;60.69;100774.28;10199089;29;20460;-75
2023/06/25 06:35:59;;;;;;;11.43;9.82;;;;;;;21.89;60.50;100768.41;10200479;29;20044;-75
2023/06/25 06:41:01;;;;;;;9.23;8.35;;;;;;;22.07;59.95;100769.88;10198066;29;20046;-75
2023/06/25 06:46:06;;;;;;;11.52;7.50;;;;;;;22.34;58.73;100762.84;10190035;29;20040;-75
2023/06/25 06:51:10;;;;;;;12.18;8.38;;;;;;;22.68;58.53;100758.59;10187055;29;20055;-76
2023/06/25 06:56:13;;;;;;;8.18;7.43;;;;;;;22.98;57.83;100759.31;10192922;29;20046;-76
2023/06/25 07:01:17;;;;;;;7.90;7.15;;;;;;;23.14;55.70;100766.44;10199191;28;20050;-75
2023/06/25 07:06:20;;;;;;;7.90;7.10;;;;;;;23.22;56.04;100758.06;10197405;29;20091;-75
2023/06/25 07:11:23;;;;;;;7.47;6.72;;;;;;;23.53;56.55;100756.81;10198212;29;20051;-75
2023/06/25 07:16:27;;;;;;;9.20;6.55;;;;;;;23.85;55.11;100761.69;10195150;29;20040;-75
2023/06/25 07:21:30;;;;;;;8.95;6.63;;;;;;;24.44;54.35;100756.69;10187328;29;20456;-75
2023/06/25 07:26:33;;;;;;;9.15;6.80;;;;;;;25.25;51.10;100750.25;10186996;29;20076;-75
2023/06/25 07:31:37;;;;;;;8.65;5.93;;;;;;;26.90;47.92;100745.19;10192918;29;20056;-76
2023/06/25 07:36:40;;;;;;;7.47;6.13;;;;;;;28.14;44.35;100742.47;10197019;29;20074;-75
2023/06/25 07:41:43;;;;;;;6.93;6.20;;;;;;;28.65;43.73;100749.44;10200401;29;20043;-75
2023/06/25 07:46:47;;;;;;;8.45;6.72;;;;;;;28.66;42.96;100742.81;10201121;29;20415;-76
2023/06/25 07:51:51;;;;;;;7.60;6.85;;;;;;;28.74;43.27;100744.41;10194571;29;20054;-76
2023/06/25 07:56:54;;;;;;;7.20;6.50;;;;;;;28.20;44.05;100739.63;10186666;29;20040;-76
2023/06/25 08:01:58;;;;;;;10.40;6.43;;;;;;;28.24;44.77;100742.75;10185670;29;20048;-76
2023/06/25 08:07:01;;;;;;;6.93;6.20;;;;;;;27.80;44.27;100731.81;10192492;29;20044;-76
2023/06/25 08:12:04;;;;;;;6.32;5.72;;;;;;;27.97;45.24;100726.53;10194937;29;20056;-76
2023/06/25 08:17:09;;;;;;;6.82;6.13;;;;;;;28.19;45.44;100735.16;10188224;29;20253;-76
2023/06/25 08:22:12;;;;;;;6.95;6.28;;;;;;;28.16;44.99;100730.13;10195377;29;20103;-76
2023/06/25 08:27:14;;;;;;;7.05;6.43;;;;;;;28.27;45.18;100732.09;10190173;29;20110;-75
2023/06/25 08:32:18;;;;;;;5.60;5.18;;;;;;;28.50;44.55;100730.50;10193975;29;20046;-76
2023/06/25 08:37:21;;;;;;;7.78;6.32;;;;;;;28.43;43.61;100724.22;10181975;29;20039;-76
2023/06/25 08:42:24;;;;;;;7.15;5.72;;;;;;;28.32;42.81;100723.09;10185245;29;20519;-77
2023/06/25 08:47:35;;;;;;;7.10;5.95;;;;;;;28.32;44.05;100708.47;10189187;29;20062;-78
2023/06/25 08:52:38;;;;;;;6.22;5.72;;;;;;;28.73;43.33;100704.88;10203777;29;20048;-78
2023/06/25 08:57:41;;;;;;;6.75;6.15;;;;;;;28.93;42.68;100697.13;10214994;29;20044;-80
2023/06/25 09:02:45;;;;;;;6.70;6.10;;;;;;;29.24;41.26;100689.56;10210838;29;20044;-79
2023/06/25 09:07:48;;;;;;;7.32;5.78;;;;;;;29.37;39.91;100694.00;10211797;29;20119;-79
2023/06/25 09:12:52;;;;;;;6.30;5.70;;;;;;;29.52;40.99;100682.44;10211061;29;20123;-78
2023/06/25 09:17:57;;;;;;;7.03;6.07;;;;;;;29.62;40.53;100679.06;10209857;29;20111;-79
2023/06/25 09:23:04;;;;;;;8.38;6.25;;;;;;;29.94;39.71;100673.94;10220760;29;20054;-78
2023/06/25 09:28:10;;;;;;;7.07;5.60;;;;;;;30.01;39.49;100671.88;10216935;29;20052;-80
2023/06/25 09:33:15;;;;;;;6.85;5.80;;;;;;;30.19;38.96;100677.22;10213954;29;20056;-83
2023/06/25 09:38:17;;;;;;;7.82;5.63;;;;;;;30.55;38.96;100674.25;10219264;29;20542;-82
2023/06/25 09:43:22;;;;;;;6.55;5.95;;;;;;;30.94;37.40;100668.81;10204202;29;20508;-81
2023/06/25 09:48:27;;;;;;;6.95;6.30;;;;;;;30.93;37.92;100676.31;10204616;29;20663;-82
2023/06/25 09:53:32;;;;;;;8.43;5.70;;;;;;;31.20;36.67;100667.31;10222949;29;20047;-84
2023/06/25 09:58:36;;;;;;;11.35;6.13;;;;;;;31.11;36.56;100658.56;10222406;29;20102;-83
2023/06/25 10:03:40;;;;;;;5.68;5.10;;;;;;;30.69;35.14;100661.75;10214957;29;20075;-83
2023/06/25 10:08:43;;;;;;;6.53;5.38;;;;;;;30.37;34.15;100664.25;10208899;29;20059;-83
2023/06/25 10:13:48;;;;;;;5.63;5.10;;;;;;;29.71;36.49;100645.25;10204414;29;20044;-83
2023/06/25 10:18:56;;;;;;;5.80;5.30;;;;;;;31.57;33.57;100643.41;10210152;29;20076;-81
2023/06/25 10:24:00;;;;;;;5.88;5.28;;;;;;;31.60;32.85;100636.50;10218045;29;20042;-83
2023/06/25 10:29:07;;;;;;;5.53;5.03;;;;;;;31.50;32.88;100628.03;10200797;29;20048;-83
2023/06/25 10:34:11;;;;;;;7.88;4.60;;;;;;;31.08;33.52;100623.84;10213416;29;20040;-82
2023/06/25 10:39:14;;;;;;;5.28;4.75;;;;;;;30.15;34.60;100628.94;10208917;29;20052;-76
2023/06/25 10:44:17;;;;;;;8.63;4.65;;;;;;;30.88;33.60;100618.84;10206175;29;20075;-82
2023/06/25 10:49:21;;;;;;;6.15;4.60;;;;;;;31.11;33.15;100606.69;10227330;29;20062;-85
2023/06/25 10:54:24;;;;;;;5.80;4.97;;;;;;;31.10;33.54;100605.03;10239907;29;20142;-84
2023/06/25 10:59:27;;;;;;;6.72;5.00;;;;;;;31.21;34.10;100599.63;10206494;29;20130;-83
2023/06/25 11:04:31;;;;;;;5.20;4.57;;;;;;;31.84;32.60;100598.19;10216647;29;20048;-84
2023/06/25 11:09:33;;;;;;;5.47;4.95;;;;;;;30.39;32.79;100604.72;10210552;29;20060;-84
2023/06/25 11:14:36;;;;;;;5.53;5.00;;;;;;;32.29;31.46;100596.19;10212674;29;20040;-82
2023/06/25 11:19:41;;;;;;;5.35;4.85;;;;;;;33.72;28.90;100577.59;10210726;29;20503;-84
2023/06/25 11:24:45;;;;;;;4.82;4.32;;;;;;;33.77;29.00;100575.66;10209682;29;20047;-82
2023/06/25 11:29:47;;;;;;;5.13;4.63;;;;;;;33.09;29.72;100577.56;10216253;29;20154;-84
2023/06/25 11:34:52;;;;;;;5.28;4.78;;;;;;;33.31;29.98;100569.09;10219128;29;20611;-83
2023/06/25 11:39:55;;;;;;;5.32;4.80;;;;;;;33.24;30.25;100563.78;10215265;29;20480;-83
2023/06/25 11:44:59;;;;;;;5.43;4.13;;;;;;;33.80;29.94;100565.09;10207519;29;20483;-84
2023/06/25 11:50:04;;;;;;;4.88;4.38;;;;;;;31.55;31.54;100564.25;10217531;29;20499;-83
2023/06/25 11:55:07;;;;;;;5.18;4.43;;;;;;;32.66;31.25;100551.72;10222586;29;20165;-83
2023/06/25 12:00:12;;;;;;;4.75;4.35;;;;;;;32.18;31.70;100553.56;10218874;29;20075;-83
2023/06/25 12:05:16;;;;;;;5.00;4.60;;;;;;;33.55;29.90;100547.19;10226478;29;20052;-84
2023/06/25 12:10:19;;;;;;;4.68;4.32;;;;;;;33.70;29.46;100538.88;10208671;29;20051;-84
2023/06/25 12:15:22;;;;;;;5.10;4.70;;;;;;;33.90;30.54;100546.44;10221667;29;20496;-83
2023/06/25 12:20:26;;;;;;;5.47;5.07;;;;;;;33.96;29.57;100541.72;10218344;29;20059;-85
2023/06/25 12:25:29;;;;;;;6.70;5.50;;;;;;;32.82;30.14;100530.41;10218140;29;20048;-82
2023/06/25 12:30:32;;;;;;;5.65;4.38;;;;;;;31.29;32.57;100530.69;10224568;29;20062;-83
2023/06/25 12:35:37;;;;;;;5.63;5.13;;;;;;;31.74;35.00;100523.13;10217649;29;20153;-82
2023/06/25 12:40:40;;;;;;;5.88;4.85;;;;;;;30.18;35.03;100525.97;10208175;29;20075;-83
2023/06/25 12:45:43;;;;;;;8.25;5.00;;;;;;;32.00;31.61;100504.75;10221294;29;20028;-84
2023/06/25 12:50:47;;;;;;;5.25;4.85;;;;;;;32.77;30.08;100503.41;10225722;29;20484;-84
2023/06/25 12:55:50;;;;;;;5.13;4.70;;;;;;;34.00;29.91;100489.88;10226861;29;20044;-84
2023/06/25 13:00:53;;;;;;;4.90;4.43;;;;;;;33.51;30.22;100485.63;10217041;29;20052;-85
2023/06/25 13:06:13;;;;;;;5.88;4.80;;;;;;;32.73;32.15;100485.59;10221363;29;20043;-84
2023/06/25 13:11:16;;;;;;;5.28;4.78;;;;;;;32.28;31.63;100470.31;10219133;29;20071;-84
2023/06/25 13:16:18;;;;;;;5.28;4.88;;;;;;;32.87;31.52;100474.81;10221158;29;20079;-83
2023/06/25 13:21:23;;;;;;;5.18;4.75;;;;;;;34.17;31.09;100459.81;10222960;29;20059;-83
2023/06/25 13:26:26;;;;;;;5.80;4.78;;;;;;;35.45;28.34;100462.16;10212843;29;20036;-84
2023/06/25 13:31:29;;;;;;;5.60;5.10;;;;;;;35.70;27.76;100463.94;10216359;29;20055;-82
2023/06/25 13:36:33;;;;;;;5.43;5.03;;;;;;;35.92;27.34;100457.94;10221569;29;20062;-84
2023/06/25 13:41:36;;;;;;;6.97;5.03;;;;;;;36.10;28.23;100455.56;10226814;29;20066;-82
2023/06/25 13:46:39;;;;;;;6.22;4.68;;;;;;;33.50;30.54;100458.91;10216656;29;20107;-84
2023/06/25 13:51:43;;;;;;;4.60;4.20;;;;;;;34.05;29.32;100452.81;10213045;29;20071;-85
2023/06/25 13:56:47;;;;;;;4.65;4.25;;;;;;;35.59;27.45;100444.78;10215404;29;20059;-84
2023/06/25 14:01:50;;;;;;;5.10;4.68;;;;;;;36.20;28.17;100435.03;10205789;29;20044;-84
2023/06/25 14:06:54;;;;;;;5.28;4.78;;;;;;;34.71;28.66;100435.16;10217701;29;20452;-84
2023/06/25 14:11:57;;;;;;;4.78;4.38;;;;;;;34.90;28.42;100425.03;10213571;29;20040;-84
2023/06/25 14:17:00;;;;;;;5.47;4.47;;;;;;;35.79;27.83;100425.03;10223123;29;20036;-83
2023/06/25 14:22:04;;;;;;;5.05;4.55;;;;;;;35.21;28.13;100430.47;10214670;29;20043;-85
2023/06/25 14:27:07;;;;;;;4.75;4.35;;;;;;;33.27;30.58;100421.28;10211359;29;20051;-86
2023/06/25 14:32:10;;;;;;;4.40;4.10;;;;;;;31.10;33.58;100413.63;10218793;29;20040;-85
2023/06/25 14:37:14;;;;;;;5.68;5.03;;;;;;;31.31;33.52;100411.09;10211661;29;20040;-85
2023/06/25 14:42:17;;;;;;;4.63;4.22;;;;;;;33.68;29.79;100401.00;10232855;29;20075;-85
2023/06/25 14:47:21;;;;;;;4.72;4.32;;;;;;;34.42;29.28;100397.59;10211120;29;20146;-83
2023/06/25 14:52:25;;;;;;;5.93;4.70;;;;;;;34.67;29.60;100395.88;10217255;29;20059;-83
2023/06/25 14:57:28;;;;;;;4.90;4.55;;;;;;;34.95;30.40;100388.75;10205544;29;20039;-83
2023/06/25 15:02:31;;;;;;;5.28;4.88;;;;;;;33.97;31.89;100379.00;10208719;29;20127;-83
2023/06/25 15:07:35;;;;;;;5.20;4.78;;;;;;;34.14;30.92;100378.72;10214285;29;20044;-84
2023/06/25 15:12:38;;;;;;;5.03;4.63;;;;;;;34.80;29.64;100370.13;10209405;29;20044;-80
2023/06/25 15:17:41;;;;;;;6.03;5.22;;;;;;;34.79;29.36;100376.81;10210352;29;20032;-82
2023/06/25 15:22:45;;;;;;;6.80;5.20;;;;;;;35.05;29.48;100368.31;10210540;29;20490;-82
2023/06/25 15:27:49;;;;;;;4.57;4.20;;;;;;;34.56;28.63;100358.81;10231898;28;20047;-82
2023/06/25 15:32:53;;;;;;;4.78;4.20;;;;;;;35.44;27.49;100357.16;10204753;29;20048;-82
2023/06/25 15:37:58;;;;;;;4.45;4.05;;;;;;;35.67;28.70;100351.97;10216888;29;20051;-81
2023/06/25 15:43:01;;;;;;;4.20;3.90;;;;;;;35.78;26.91;100347.94;10218793;29;20054;-82
2023/06/25 15:48:04;;;;;;;4.63;4.22;;;;;;;35.67;27.00;100343.59;10217665;29;20067;-83
2023/06/25 15:53:08;;;;;;;6.07;4.15;;;;;;;35.80;27.46;100330.91;10202369;29;20040;-82
2023/06/25 15:58:13;;;;;;;4.80;4.38;;;;;;;34.85;29.40;100339.41;10213287;29;20090;-82
2023/06/25 16:03:16;;;;;;;4.72;4.32;;;;;;;34.66;30.09;100332.00;10212690;29;20519;-84
2023/06/25 16:08:20;;;;;;;4.88;4.47;;;;;;;35.82;28.33;100321.09;10213328;29;20040;-81
2023/06/25 16:13:23;;;;;;;4.95;4.30;;;;;;;36.44;28.59;100312.03;10217231;29;20067;-80
2023/06/25 16:18:26;;;;;;;4.28;3.97;;;;;;;34.96;30.57;100314.22;10214648;29;20451;-81
2023/06/25 16:23:30;;;;;;;7.57;4.88;;;;;;;34.49;30.98;100315.59;10206192;29;20115;-79
2023/06/25 16:28:37;;;;;;;4.38;4.07;;;;;;;34.83;27.73;100307.34;10205449;29;20052;-78
2023/06/25 16:33:40;;;;;;;4.70;3.97;;;;;;;37.84;27.29;100300.03;10195000;29;20131;-78
2023/06/25 16:38:45;;;;;;;4.97;4.47;;;;;;;41.89;23.69;100294.63;10196598;29;20054;-78
2023/06/25 16:43:48;;;;;;;4.70;4.30;;;;;;;45.48;19.63;100287.03;10189995;29;20039;-78
2023/06/25 16:48:51;;;;;;;4.63;4.22;;;;;;;46.01;19.50;100281.09;10186121;29;20492;-78
2023/06/25 16:53:59;;;;;;;5.57;5.03;;;;;;;46.57;19.62;100283.63;10191582;29;20064;-78
2023/06/25 16:59:02;;;;;;;4.55;4.07;;;;;;;46.85;19.59;100279.78;10206846;29;20050;-77
2023/06/25 17:04:05;;;;;;;3.97;3.67;;;;;;;47.42;17.88;100275.25;10206470;29;20047;-78
2023/06/25 17:09:09;;;;;;;3.78;3.55;;;;;;;47.54;17.44;100262.88;10198536;29;20112;-79
2023/06/25 17:14:12;;;;;;;4.13;3.83;;;;;;;47.49;18.33;100268.88;10197139;29;20044;-78
2023/06/25 17:19:15;;;;;;;3.67;3.40;;;;;;;48.09;17.32;100271.97;10195855;29;20061;-80
2023/06/25 17:24:19;;;;;;;3.70;3.40;;;;;;;48.12;16.72;100268.34;10193879;29;20055;-77
2023/06/25 17:29:22;;;;;;;3.80;3.50;;;;;;;45.11;19.33;100258.81;10190607;29;20135;-77
2023/06/25 17:34:25;;;;;;;3.97;3.67;;;;;;;43.64;20.61;100263.84;10200743;29;20073;-77
2023/06/25 17:39:29;;;;;;;4.55;4.15;;;;;;;41.78;21.90;100269.63;10201883;29;20032;-77
2023/06/25 17:44:32;;;;;;;4.15;3.85;;;;;;;41.12;22.48;100263.47;10200897;29;20042;-76
2023/06/25 17:49:35;;;;;;;4.25;3.95;;;;;;;38.78;23.66;100264.97;10198223;29;20035;-76
2023/06/25 17:54:39;;;;;;;4.47;3.80;;;;;;;35.91;26.10;100259.81;10203940;29;20195;-78
2023/06/25 17:59:42;;;;;;;4.05;3.75;;;;;;;33.88;29.68;100272.88;10199541;29;20036;-79
2023/06/25 18:04:45;;;;;;;4.97;4.05;;;;;;;32.50;33.06;100266.38;10210940;29;20095;-79
2023/06/25 18:09:49;;;;;;;5.20;4.07;;;;;;;31.83;34.68;100257.75;10211649;29;20040;-80
2023/06/25 18:14:52;;;;;;;4.75;4.20;;;;;;;31.38;34.89;100258.25;10220681;29;20048;-80
2023/06/25 18:19:55;;;;;;;5.15;4.75;;;;;;;30.85;37.46;100258.03;10216216;29;20035;-77
2023/06/25 18:24:59;;;;;;;4.78;4.38;;;;;;;30.46;40.03;100260.94;10184614;29;20420;-77
2023/06/25 18:30:02;;;;;;;4.88;4.47;;;;;;;30.24;39.36;100256.25;10192820;29;20060;-77
2023/06/25 18:35:05;;;;;;;4.20;3.88;;;;;;;30.08;38.54;100259.88;10197659;29;20495;-77
2023/06/25 18:40:11;;;;;;;5.55;4.55;;;;;;;30.09;38.23;100260.72;10205598;29;20499;-79
2023/06/25 18:45:13;;;;;;;6.28;5.07;;;;;;;29.80;38.33;100244.28;10223847;29;20066;-78
2023/06/25 18:50:20;;;;;;;6.15;4.70;;;;;;;29.67;38.89;100250.19;10209421;29;20042;-80
2023/06/25 18:55:24;;;;;;;4.93;4.53;;;;;;;29.52;39.20;100243.31;10203049;29;20115;-79
2023/06/25 19:00:27;;;;;;;4.88;4.47;;;;;;;29.37;39.60;100243.94;10198163;29;20048;-77
2023/06/25 19:05:30;;;;;;;5.68;4.57;;;;;;;29.06;40.50;100238.94;10204081;29;20138;-78
2023/06/25 19:10:34;;;;;;;6.32;5.38;;;;;;;28.79;40.83;100236.00;10212384;29;20052;-77
2023/06/25 19:15:37;;;;;;;6.40;5.72;;;;;;;28.68;42.26;100244.09;10211418;28;20051;-77
2023/06/25 19:20:42;;;;;;;6.20;5.22;;;;;;;28.45;42.57;100236.72;10205444;29;20044;-78
2023/06/25 19:25:46;;;;;;;18.00;5.63;;;;;;;28.34;42.78;100234.84;10208599;29;20048;-77
2023/06/25 19:30:50;;;;;;;6.40;5.80;;;;;;;28.14;42.86;100231.66;10196133;29;20056;-77
2023/06/25 19:35:53;;;;;;;6.40;5.57;;;;;;;28.00;43.87;100234.72;10186252;29;20077;-78
2023/06/25 19:40:57;;;;;;;6.88;6.25;;;;;;;27.89;44.09;100226.41;10192839;29;20032;-78
2023/06/25 19:46:02;;;;;;;7.40;6.28;;;;;;;27.76;44.37;100235.81;10201914;29;20104;-78
2023/06/25 19:51:06;;;;;;;6.50;5.90;;;;;;;27.59;44.68;100232.91;10199260;29;20415;-76
2023/06/25 19:56:12;;;;;;;9.55;6.10;;;;;;;27.38;45.82;100239.88;10191305;29;20072;-78
2023/06/25 20:01:15;;;;;;;7.25;6.43;;;;;;;27.32;46.39;100232.56;10190287;29;20477;-78
2023/06/25 20:06:19;;;;;;;7.20;6.50;;;;;;;27.18;46.88;100223.69;10184242;29;20067;-77
2023/06/25 20:11:24;;;;;;;6.82;6.13;;;;;;;27.08;47.04;100231.69;10181369;29;20040;-78
2023/06/25 20:16:27;;;;;;;6.80;6.20;;;;;;;26.96;47.29;100234.44;10189488;29;20135;-78
2023/06/25 20:21:30;;;;;;;7.00;6.30;;;;;;;26.88;47.52;100230.09;10194792;29;20507;-77
2023/06/25 20:26:34;;;;;;;7.40;6.70;;;;;;;26.74;47.52;100240.44;10203881;29;20052;-78
2023/06/25 20:31:38;;;;;;;7.18;6.50;;;;;;;26.64;48.13;100231.91;10202809;29;20044;-78
2023/06/25 20:36:41;;;;;;;7.22;6.53;;;;;;;26.54;48.25;100226.13;10196050;29;20060;-78
2023/06/25 20:41:46;;;;;;;14.65;7.75;;;;;;;26.28;48.89;100230.09;10183870;29;20076;-77
2023/06/25 20:46:49;;;;;;;7.72;6.93;;;;;;;26.14;49.10;100226.63;10186062;29;20062;-77
2023/06/25 20:51:51;;;;;;;9.13;6.63;;;;;;;26.09;49.62;100234.75;10204787;29;20415;-77
2023/06/25 20:56:56;;;;;;;7.68;6.97;;;;;;;26.07;49.81;100239.63;10200148;29;20456;-77
2023/06/25 21:01:59;;;;;;;6.97;6.28;;;;;;;25.96;49.99;100238.47;10200067;29;20106;-77
2023/06/25 21:07:02;;;;;;;9.88;7.10;;;;;;;25.91;50.22;100232.00;10196557;29;20048;-77
2023/06/25 21:12:06;;;;;;;10.20;7.40;;;;;;;25.83;50.83;100236.72;10192805;29;20093;-77
2023/06/25 21:17:09;;;;;;;8.02;7.22;;;;;;;25.61;51.28;100232.69;10197484;29;20040;-77
2023/06/25 21:22:12;;;;;;;7.90;7.13;;;;;;;25.46;51.95;100235.00;10214924;29;20047;-78
2023/06/25 21:27:16;;;;;;;8.90;8.00;;;;;;;25.39;52.31;100226.78;10233948;29;20341;-77
2023/06/25 21:32:20;;;;;;;9.02;7.55;;;;;;;25.38;52.46;100225.94;10213454;29;20048;-77
2023/06/25 21:37:23;;;;;;;9.23;7.78;;;;;;;25.28;52.81;100222.03;10208516;29;20046;-76
2023/06/25 21:42:27;;;;;;;9.48;8.32;;;;;;;25.05;53.55;100225.41;10224232;28;20146;-75
2023/06/25 21:47:30;;;;;;;9.02;8.23;;;;;;;24.92;53.71;100226.31;10197098;29;20044;-76
2023/06/25 21:52:33;;;;;;;9.15;8.23;;;;;;;24.78;53.87;100222.81;10193923;29;20043;-78
2023/06/25 21:57:37;;;;;;;8.73;7.80;;;;;;;24.60;54.57;100214.50;10197604;29;20048;-77
2023/06/25 22:02:41;;;;;;;9.25;7.93;;;;;;;24.41;54.90;100216.28;10200811;29;20123;-79
2023/06/25 22:07:44;;;;;;;11.48;8.27;;;;;;;24.24;55.57;100211.28;10205363;29;20078;-77
2023/06/25 22:12:48;;;;;;;12.95;8.52;;;;;;;24.23;55.51;100211.50;10207076;29;20083;-77
2023/06/25 22:17:51;;;;;;;8.27;7.47;;;;;;;24.20;55.60;100215.53;10203449;29;20063;-78
2023/06/25 22:22:54;;;;;;;9.63;8.70;;;;;;;24.20;55.99;100210.03;10198157;29;20142;-77
2023/06/25 22:27:58;;;;;;;8.55;7.70;;;;;;;24.20;55.94;100214.69;10191052;29;20157;-78
2023/06/25 22:33:01;;;;;;;9.10;8.15;;;;;;;24.12;55.62;100218.53;10196351;29;20047;-77
2023/06/25 22:38:04;;;;;;;8.45;7.28;;;;;;;24.02;56.14;100213.47;10202999;29;20071;-77
2023/06/25 22:43:09;;;;;;;8.82;7.90;;;;;;;23.86;56.02;100203.84;10206069;29;20047;-77
2023/06/25 22:48:11;;;;;;;9.05;7.72;;;;;;;23.79;56.43;100204.94;10203506;29;20039;-77
2023/06/25 22:53:14;;;;;;;9.45;8.23;;;;;;;23.66;56.12;100208.50;10201645;29;20055;-77
2023/06/25 22:58:18;;;;;;;9.75;8.32;;;;;;;23.60;56.24;100199.25;10198907;29;20515;-77
2023/06/25 23:03:21;;;;;;;8.68;7.78;;;;;;;23.47;55.90;100199.28;10193882;29;20044;-77
2023/06/25 23:08:24;;;;;;;11.98;8.52;;;;;;;23.42;56.20;100190.84;10200039;29;20055;-77